sensor_id;sensor_type;location;lat;lon;timestamp;pressure;altitude;pressure_sealevel;temperature;humidity
62126;BME280;69591;53.282;6.150;2023-10-09T00:00:02;102069.88;;;21.07;56.41
62126;BME280;69591;53.282;6.150;2023-10-09T00:01:06;102066.31;;;21.06;56.68
62126;BME280;69591;53.282;6.150;2023-10-09T00:02:09;102069.06;;;21.06;56.71
62126;BME280;69591;53.282;6.150;2023-10-09T00:03:10;102059.28;;;21.05;56.88
62126;BME280;69591;53.282;6.150;2023-10-09T00:04:12;102055.72;;;21.05;56.30
62126;BME280;69591;53.282;6.150;2023-10-09T00:05:15;102049.44;;;21.04;56.26
62126;BME280;69591;53.282;6.150;2023-10-09T00:06:16;102047.47;;;21.05;56.39
62126;BME280;69591;53.282;6.150;2023-10-09T00:07:18;102047.09;;;21.06;56.40
62126;BME280;69591;53.282;6.150;2023-10-09T00:08:21;102041.59;;;21.06;56.22
62126;BME280;69591;53.282;6.150;2023-10-09T00:09:23;102040.03;;;21.05;56.77
62126;BME280;69591;53.282;6.150;2023-10-09T00:10:25;102040.03;;;21.05;56.77
62126;BME280;69591;53.282;6.150;2023-10-09T00:11:27;102045.53;;;21.05;56.80
62126;BME280;69591;53.282;6.150;2023-10-09T00:12:28;102038.84;;;21.06;56.53
62126;BME280;69591;53.282;6.150;2023-10-09T00:13:30;102033.75;;;21.05;56.76
62126;BME280;69591;53.282;6.150;2023-10-09T00:14:32;102040.03;;;21.05;56.44
62126;BME280;69591;53.282;6.150;2023-10-09T00:15:33;102034.56;;;21.05;56.52
62126;BME280;69591;53.282;6.150;2023-10-09T00:16:35;102027.47;;;21.04;56.84
62126;BME280;69591;53.282;6.150;2023-10-09T00:17:37;102031.81;;;21.05;56.44
62126;BME280;69591;53.282;6.150;2023-10-09T00:18:39;102029.84;;;21.06;56.86
62126;BME280;69591;53.282;6.150;2023-10-09T00:19:41;102028.25;;;21.05;56.72
62126;BME280;69591;53.282;6.150;2023-10-09T00:20:42;102015.31;;;21.05;56.43
62126;BME280;69591;53.282;6.150;2023-10-09T00:21:45;102006.28;;;21.05;56.58
62126;BME280;69591;53.282;6.150;2023-10-09T00:22:47;102018.06;;;21.05;57.05
62126;BME280;69591;53.282;6.150;2023-10-09T00:23:50;102014.94;;;21.07;56.65
62126;BME280;69591;53.282;6.150;2023-10-09T00:24:52;102016.47;;;21.04;56.49
62126;BME280;69591;53.282;6.150;2023-10-09T00:25:54;102020.03;;;21.05;56.65
62126;BME280;69591;53.282;6.150;2023-10-09T00:26:56;102010.22;;;21.04;56.75
62126;BME280;69591;53.282;6.150;2023-10-09T00:27:57;102006.28;;;21.05;56.77
62126;BME280;69591;53.282;6.150;2023-10-09T00:28:59;102011.00;;;21.04;56.71
62126;BME280;69591;53.282;6.150;2023-10-09T00:30:01;102004.72;;;21.04;56.90
62126;BME280;69591;53.282;6.150;2023-10-09T00:31:03;102008.25;;;21.04;56.81
62126;BME280;69591;53.282;6.150;2023-10-09T00:32:05;102002.75;;;21.04;56.60
62126;BME280;69591;53.282;6.150;2023-10-09T00:33:07;101996.09;;;21.05;56.71
62126;BME280;69591;53.282;6.150;2023-10-09T00:34:09;101999.63;;;21.02;56.54
62126;BME280;69591;53.282;6.150;2023-10-09T00:35:10;101991.75;;;21.04;56.52
62126;BME280;69591;53.282;6.150;2023-10-09T00:36:12;101983.53;;;21.04;56.76
62126;BME280;69591;53.282;6.150;2023-10-09T00:37:14;101974.53;;;21.04;56.78
62126;BME280;69591;53.282;6.150;2023-10-09T00:38:15;101983.53;;;21.04;56.72
62126;BME280;69591;53.282;6.150;2023-10-09T00:39:19;101985.13;;;21.05;56.96
62126;BME280;69591;53.282;6.150;2023-10-09T00:40:21;101977.25;;;21.00;57.04
62126;BME280;69591;53.282;6.150;2023-10-09T00:41:22;101976.44;;;21.00;56.67
62126;BME280;69591;53.282;6.150;2023-10-09T00:42:24;101986.28;;;21.04;56.61
62126;BME280;69591;53.282;6.150;2023-10-09T00:43:26;101981.97;;;21.03;56.99
62126;BME280;69591;53.282;6.150;2023-10-09T00:44:28;101986.66;;;21.03;56.65
62126;BME280;69591;53.282;6.150;2023-10-09T00:45:30;101989.03;;;21.04;56.70
62126;BME280;69591;53.282;6.150;2023-10-09T00:46:32;101989.03;;;21.04;56.67
62126;BME280;69591;53.282;6.150;2023-10-09T00:47:34;101984.72;;;21.03;57.09
62126;BME280;69591;53.282;6.150;2023-10-09T00:48:37;101984.72;;;21.03;56.94
62126;BME280;69591;53.282;6.150;2023-10-09T00:49:39;101976.47;;;21.03;56.75
62126;BME280;69591;53.282;6.150;2023-10-09T00:50:42;101981.97;;;21.03;57.13
62126;BME280;69591;53.282;6.150;2023-10-09T00:51:48;101979.22;;;21.03;56.92
62126;BME280;69591;53.282;6.150;2023-10-09T00:52:56;101978.81;;;21.01;56.90
62126;BME280;69591;53.282;6.150;2023-10-09T00:54:00;101974.91;;;21.02;56.90
62126;BME280;69591;53.282;6.150;2023-10-09T00:55:04;101980.41;;;21.02;56.79
62126;BME280;69591;53.282;6.150;2023-10-09T00:56:09;101977.66;;;21.02;56.82
62126;BME280;69591;53.282;6.150;2023-10-09T00:57:11;101968.63;;;21.02;57.07
62126;BME280;69591;53.282;6.150;2023-10-09T00:58:14;101972.94;;;21.03;57.18
62126;BME280;69591;53.282;6.150;2023-10-09T00:59:16;101966.66;;;21.02;56.93
62126;BME280;69591;53.282;6.150;2023-10-09T01:00:18;101967.81;;;21.01;57.02
62126;BME280;69591;53.282;6.150;2023-10-09T01:01:20;101962.31;;;21.01;56.88
62126;BME280;69591;53.282;6.150;2023-10-09T01:02:22;101968.22;;;21.03;57.16
62126;BME280;69591;53.282;6.150;2023-10-09T01:03:23;101966.66;;;21.02;56.97
62126;BME280;69591;53.282;6.150;2023-10-09T01:04:25;101970.19;;;21.03;57.17
62126;BME280;69591;53.282;6.150;2023-10-09T01:05:28;101964.69;;;21.03;56.87
62126;BME280;69591;53.282;6.150;2023-10-09T01:06:30;101967.81;;;21.01;57.21
62126;BME280;69591;53.282;6.150;2023-10-09T01:07:32;101961.19;;;21.02;57.30
62126;BME280;69591;53.282;6.150;2023-10-09T01:08:34;101963.13;;;21.02;56.86
62126;BME280;69591;53.282;6.150;2023-10-09T01:09:36;101963.91;;;21.02;57.34
62126;BME280;69591;53.282;6.150;2023-10-09T01:10:45;101962.72;;;21.00;56.93
62126;BME280;69591;53.282;6.150;2023-10-09T01:11:47;101961.94;;;20.99;57.40
62126;BME280;69591;53.282;6.150;2023-10-09T01:12:49;101954.09;;;21.01;57.49
62126;BME280;69591;53.282;6.150;2023-10-09T01:13:50;101951.34;;;21.01;57.39
62126;BME280;69591;53.282;6.150;2023-10-09T01:14:52;101952.13;;;21.02;57.17
62126;BME280;69591;53.282;6.150;2023-10-09T01:15:54;101944.28;;;21.00;57.13
62126;BME280;69591;53.282;6.150;2023-10-09T01:16:56;101944.69;;;21.02;57.08
62126;BME280;69591;53.282;6.150;2023-10-09T01:17:58;101941.94;;;21.02;57.30
62126;BME280;69591;53.282;6.150;2023-10-09T01:19:00;101953.69;;;21.03;57.09
62126;BME280;69591;53.282;6.150;2023-10-09T01:20:02;101944.69;;;21.02;57.45
62126;BME280;69591;53.282;6.150;2023-10-09T01:21:04;101938.78;;;21.00;57.25
62126;BME280;69591;53.282;6.150;2023-10-09T01:22:06;101929.38;;;21.01;57.54
62126;BME280;69591;53.282;6.150;2023-10-09T01:23:10;101932.53;;;21.03;57.12
62126;BME280;69591;53.282;6.150;2023-10-09T01:24:12;101928.59;;;21.01;57.50
62126;BME280;69591;53.282;6.150;2023-10-09T01:25:14;101929.38;;;21.01;57.05
62126;BME280;69591;53.282;6.150;2023-10-09T01:26:16;101930.16;;;21.02;57.39
62126;BME280;69591;53.282;6.150;2023-10-09T01:27:17;101936.47;;;21.02;57.12
62126;BME280;69591;53.282;6.150;2023-10-09T01:28:19;101925.88;;;21.01;57.21
62126;BME280;69591;53.282;6.150;2023-10-09T01:29:22;101927.44;;;21.02;57.60
62126;BME280;69591;53.282;6.150;2023-10-09T01:30:24;101926.63;;;21.01;57.19
62126;BME280;69591;53.282;6.150;2023-10-09T01:31:26;101923.88;;;21.01;57.40
62126;BME280;69591;53.282;6.150;2023-10-09T01:32:28;101923.88;;;21.01;57.61
62126;BME280;69591;53.282;6.150;2023-10-09T01:33:30;101912.91;;;21.01;57.33
62126;BME280;69591;53.282;6.150;2023-10-09T01:34:33;101917.63;;;21.01;57.57
62126;BME280;69591;53.282;6.150;2023-10-09T01:35:35;101914.88;;;21.01;57.25
62126;BME280;69591;53.282;6.150;2023-10-09T01:36:37;101912.91;;;21.01;57.49
62126;BME280;69591;53.282;6.150;2023-10-09T01:37:38;101901.91;;;21.01;57.32
62126;BME280;69591;53.282;6.150;2023-10-09T01:38:42;101914.50;;;21.02;57.13
62126;BME280;69591;53.282;6.150;2023-10-09T01:39:43;101905.03;;;21.00;57.30
62126;BME280;69591;53.282;6.150;2023-10-09T01:40:45;101904.66;;;21.01;57.35
62126;BME280;69591;53.282;6.150;2023-10-09T01:41:47;101907.41;;;21.01;57.38
62126;BME280;69591;53.282;6.150;2023-10-09T01:42:49;101902.72;;;21.02;57.18
62126;BME280;69591;53.282;6.150;2023-10-09T01:43:50;101901.91;;;21.01;57.40
62126;BME280;69591;53.282;6.150;2023-10-09T01:44:52;101897.22;;;21.02;57.67
62126;BME280;69591;53.282;6.150;2023-10-09T01:45:54;101894.47;;;21.02;57.80
62126;BME280;69591;53.282;6.150;2023-10-09T01:46:55;101890.16;;;21.01;57.55
62126;BME280;69591;53.282;6.150;2023-10-09T01:47:57;101896.41;;;21.01;57.32
62126;BME280;69591;53.282;6.150;2023-10-09T01:49:00;101888.19;;;21.01;57.55
62126;BME280;69591;53.282;6.150;2023-10-09T01:50:02;101886.22;;;21.02;57.30
62126;BME280;69591;53.282;6.150;2023-10-09T01:51:04;101885.44;;;21.01;57.42
62126;BME280;69591;53.282;6.150;2023-10-09T01:52:05;101879.94;;;21.01;57.89
62126;BME280;69591;53.282;6.150;2023-10-09T01:53:07;101885.44;;;21.01;57.52
62126;BME280;69591;53.282;6.150;2023-10-09T01:54:10;101876.03;;;21.02;57.38
62126;BME280;69591;53.282;6.150;2023-10-09T01:55:12;101872.09;;;21.00;57.50
62126;BME280;69591;53.282;6.150;2023-10-09T01:56:13;101879.94;;;21.01;57.56
62126;BME280;69591;53.282;6.150;2023-10-09T01:57:16;101879.94;;;21.01;57.80
62126;BME280;69591;53.282;6.150;2023-10-09T01:58:18;101880.34;;;21.00;57.98
62126;BME280;69591;53.282;6.150;2023-10-09T01:59:20;101883.09;;;21.00;57.48
62126;BME280;69591;53.282;6.150;2023-10-09T02:00:22;101880.34;;;21.00;57.47
62126;BME280;69591;53.282;6.150;2023-10-09T02:01:24;101881.13;;;21.00;57.90
62126;BME280;69591;53.282;6.150;2023-10-09T02:02:25;101883.88;;;21.00;57.88
62126;BME280;69591;53.282;6.150;2023-10-09T02:03:28;101883.09;;;21.00;57.97
62126;BME280;69591;53.282;6.150;2023-10-09T02:04:30;101887.41;;;21.01;57.42
62126;BME280;69591;53.282;6.150;2023-10-09T02:05:32;101883.88;;;21.00;57.48
62126;BME280;69591;53.282;6.150;2023-10-09T02:06:34;101881.13;;;21.00;57.94
62126;BME280;69591;53.282;6.150;2023-10-09T02:07:35;101887.41;;;21.01;57.66
62126;BME280;69591;53.282;6.150;2023-10-09T02:08:37;101883.88;;;21.00;57.62
62126;BME280;69591;53.282;6.150;2023-10-09T02:09:40;101885.44;;;21.01;57.52
62126;BME280;69591;53.282;6.150;2023-10-09T02:10:42;101885.06;;;20.99;57.89
62126;BME280;69591;53.282;6.150;2023-10-09T02:11:44;101886.63;;;21.00;57.65
62126;BME280;69591;53.282;6.150;2023-10-09T02:12:45;101886.63;;;21.00;57.58
62126;BME280;69591;53.282;6.150;2023-10-09T02:13:47;101882.31;;;20.99;57.91
62126;BME280;69591;53.282;6.150;2023-10-09T02:14:50;101879.94;;;21.01;57.77
62126;BME280;69591;53.282;6.150;2023-10-09T02:15:52;101881.13;;;21.00;57.76
62126;BME280;69591;53.282;6.150;2023-10-09T02:16:54;101872.91;;;21.00;57.75
62126;BME280;69591;53.282;6.150;2023-10-09T02:17:56;101872.91;;;21.00;57.74
62126;BME280;69591;53.282;6.150;2023-10-09T02:18:57;101873.69;;;21.01;57.66
62126;BME280;69591;53.282;6.150;2023-10-09T02:19:59;101867.41;;;21.00;58.08
62126;BME280;69591;53.282;6.150;2023-10-09T02:21:05;101867.41;;;21.00;58.07
62126;BME280;69591;53.282;6.150;2023-10-09T02:22:07;101859.16;;;20.97;57.94
62126;BME280;69591;53.282;6.150;2023-10-09T02:23:09;101861.13;;;21.00;58.03
62126;BME280;69591;53.282;6.150;2023-10-09T02:24:10;101861.91;;;21.00;57.76
62126;BME280;69591;53.282;6.150;2023-10-09T02:25:14;101857.22;;;21.01;57.97
62126;BME280;69591;53.282;6.150;2023-10-09T02:26:17;101854.84;;;20.99;58.20
62126;BME280;69591;53.282;6.150;2023-10-09T02:27:19;101854.84;;;20.99;58.04
62126;BME280;69591;53.282;6.150;2023-10-09T02:28:21;101848.56;;;20.99;57.72
62126;BME280;69591;53.282;6.150;2023-10-09T02:29:22;101852.13;;;20.99;58.13
62126;BME280;69591;53.282;6.150;2023-10-09T02:30:25;101849.38;;;20.99;57.92
62126;BME280;69591;53.282;6.150;2023-10-09T02:31:27;101844.63;;;21.00;58.25
62126;BME280;69591;53.282;6.150;2023-10-09T02:32:30;101843.88;;;20.99;57.85
62126;BME280;69591;53.282;6.150;2023-10-09T02:33:31;101849.38;;;20.99;58.17
62126;BME280;69591;53.282;6.150;2023-10-09T02:34:33;101843.88;;;20.99;58.02
62126;BME280;69591;53.282;6.150;2023-10-09T02:35:35;101844.63;;;21.00;57.78
62126;BME280;69591;53.282;6.150;2023-10-09T02:36:36;101838.38;;;20.99;58.34
62126;BME280;69591;53.282;6.150;2023-10-09T02:37:38;101849.38;;;20.99;58.19
62126;BME280;69591;53.282;6.150;2023-10-09T02:38:40;101832.88;;;20.99;57.89
62126;BME280;69591;53.282;6.150;2023-10-09T02:39:42;101841.13;;;20.99;57.87
62126;BME280;69591;53.282;6.150;2023-10-09T02:40:45;101831.72;;;21.00;58.20
62126;BME280;69591;53.282;6.150;2023-10-09T02:41:46;101832.09;;;20.99;58.27
62126;BME280;69591;53.282;6.150;2023-10-09T02:42:48;101827.41;;;20.99;58.23
62126;BME280;69591;53.282;6.150;2023-10-09T02:43:50;101821.91;;;20.99;57.95
62126;BME280;69591;53.282;6.150;2023-10-09T02:44:52;101827.41;;;20.99;58.00
62126;BME280;69591;53.282;6.150;2023-10-09T02:45:54;101815.63;;;20.99;58.29
62126;BME280;69591;53.282;6.150;2023-10-09T02:46:55;101821.91;;;20.99;58.29
62126;BME280;69591;53.282;6.150;2023-10-09T02:47:57;101823.06;;;20.98;58.29
62126;BME280;69591;53.282;6.150;2023-10-09T02:48:59;101825.41;;;21.00;58.07
62126;BME280;69591;53.282;6.150;2023-10-09T02:50:00;101824.66;;;20.99;58.39
62126;BME280;69591;53.282;6.150;2023-10-09T02:51:02;101810.94;;;20.99;58.01
62126;BME280;69591;53.282;6.150;2023-10-09T02:52:04;101813.25;;;20.97;58.31
62126;BME280;69591;53.282;6.150;2023-10-09T02:53:05;101807.38;;;20.99;58.39
62126;BME280;69591;53.282;6.150;2023-10-09T02:54:08;101805.44;;;20.99;58.21
62126;BME280;69591;53.282;6.150;2023-10-09T02:55:10;101804.22;;;20.97;58.08
62126;BME280;69591;53.282;6.150;2023-10-09T02:56:13;101812.47;;;21.00;58.06
62126;BME280;69591;53.282;6.150;2023-10-09T02:57:14;101810.94;;;20.99;58.26
62126;BME280;69591;53.282;6.150;2023-10-09T02:58:16;101803.84;;;20.98;58.44
62126;BME280;69591;53.282;6.150;2023-10-09T02:59:18;101809.34;;;20.98;58.08
62126;BME280;69591;53.282;6.150;2023-10-09T03:00:19;101805.44;;;20.99;58.41
62126;BME280;69591;53.282;6.150;2023-10-09T03:01:21;101807.78;;;20.97;58.55
62126;BME280;69591;53.282;6.150;2023-10-09T03:02:23;101805.03;;;20.97;58.51
62126;BME280;69591;53.282;6.150;2023-10-09T03:03:25;101804.63;;;20.99;58.23
62126;BME280;69591;53.282;6.150;2023-10-09T03:04:27;101807.78;;;20.97;58.12
62126;BME280;69591;53.282;6.150;2023-10-09T03:05:29;101803.84;;;20.98;58.60
62126;BME280;69591;53.282;6.150;2023-10-09T03:06:31;101796.78;;;20.97;58.35
62126;BME280;69591;53.282;6.150;2023-10-09T03:07:33;101794.03;;;20.97;58.31
62126;BME280;69591;53.282;6.150;2023-10-09T03:08:34;101803.84;;;20.98;58.24
62126;BME280;69591;53.282;6.150;2023-10-09T03:09:36;101799.94;;;20.99;58.60
62126;BME280;69591;53.282;6.150;2023-10-09T03:10:40;101800.31;;;20.98;58.80
62126;BME280;69591;53.282;6.150;2023-10-09T03:11:44;101799.94;;;20.99;58.60
62126;BME280;69591;53.282;6.150;2023-10-09T03:12:46;101799.16;;;20.99;58.53
62126;BME280;69591;53.282;6.150;2023-10-09T03:13:47;101804.22;;;20.97;58.69
62126;BME280;69591;53.282;6.150;2023-10-09T03:14:49;101796.78;;;20.97;58.21
62126;BME280;69591;53.282;6.150;2023-10-09T03:15:51;101804.63;;;20.99;58.44
62126;BME280;69591;53.282;6.150;2023-10-09T03:16:52;101808.19;;;20.99;58.58
62126;BME280;69591;53.282;6.150;2023-10-09T03:17:54;101802.28;;;20.97;58.24
62126;BME280;69591;53.282;6.150;2023-10-09T03:18:56;101805.03;;;20.97;58.38
62126;BME280;69591;53.282;6.150;2023-10-09T03:19:58;101810.13;;;20.99;58.77
62126;BME280;69591;53.282;6.150;2023-10-09T03:20:59;101804.63;;;20.99;58.63
62126;BME280;69591;53.282;6.150;2023-10-09T03:22:01;101802.28;;;20.97;58.82
62126;BME280;69591;53.282;6.150;2023-10-09T03:23:03;101807.78;;;20.97;58.39
62126;BME280;69591;53.282;6.150;2023-10-09T03:24:04;101799.09;;;20.95;58.41
62126;BME280;69591;53.282;6.150;2023-10-09T03:25:07;101801.09;;;20.98;58.38
62126;BME280;69591;53.282;6.150;2023-10-09T03:26:09;101799.53;;;20.97;59.00
62126;BME280;69591;53.282;6.150;2023-10-09T03:27:23;101799.91;;;20.96;58.69
62126;BME280;69591;53.282;6.150;2023-10-09T03:28:25;101795.22;;;20.96;58.81
62126;BME280;69591;53.282;6.150;2023-10-09T03:29:27;101801.47;;;20.97;58.84
62126;BME280;69591;53.282;6.150;2023-10-09T03:30:29;101797.97;;;20.96;58.94
62126;BME280;69591;53.282;6.150;2023-10-09T03:31:30;101796.78;;;20.97;58.63
62126;BME280;69591;53.282;6.150;2023-10-09T03:32:32;101799.53;;;20.97;58.58
62126;BME280;69591;53.282;6.150;2023-10-09T03:33:34;101796.78;;;20.97;58.63
62126;BME280;69591;53.282;6.150;2023-10-09T03:34:35;101795.59;;;20.95;58.66
62126;BME280;69591;53.282;6.150;2023-10-09T03:35:37;101797.59;;;20.98;59.00
62126;BME280;69591;53.282;6.150;2023-10-09T03:36:39;101794.41;;;20.96;58.67
62126;BME280;69591;53.282;6.150;2023-10-09T03:37:40;101802.28;;;20.97;58.96
62126;BME280;69591;53.282;6.150;2023-10-09T03:38:42;101797.59;;;20.98;58.96
62126;BME280;69591;53.282;6.150;2023-10-09T03:39:43;101799.53;;;20.97;58.64
62126;BME280;69591;53.282;6.150;2023-10-09T03:40:45;101796.00;;;20.97;58.71
62126;BME280;69591;53.282;6.150;2023-10-09T03:41:47;101792.47;;;20.96;58.55
62126;BME280;69591;53.282;6.150;2023-10-09T03:42:50;101796.41;;;20.99;58.82
62126;BME280;69591;53.282;6.150;2023-10-09T03:43:52;101799.16;;;20.99;59.10
62126;BME280;69591;53.282;6.150;2023-10-09T03:44:54;101799.53;;;20.97;59.17
62126;BME280;69591;53.282;6.150;2023-10-09T03:45:56;101796.78;;;20.97;58.72
62126;BME280;69591;53.282;6.150;2023-10-09T03:46:57;101807.78;;;20.97;58.72
62126;BME280;69591;53.282;6.150;2023-10-09T03:47:59;101805.81;;;20.98;58.75
62126;BME280;69591;53.282;6.150;2023-10-09T03:49:01;101801.47;;;20.97;59.13
62126;BME280;69591;53.282;6.150;2023-10-09T03:50:03;101807.78;;;20.97;58.63
62126;BME280;69591;53.282;6.150;2023-10-09T03:51:04;101807.78;;;20.97;58.82
62126;BME280;69591;53.282;6.150;2023-10-09T03:52:06;101807.78;;;20.97;58.78
62126;BME280;69591;53.282;6.150;2023-10-09T03:53:08;101806.97;;;20.97;59.22
62126;BME280;69591;53.282;6.150;2023-10-09T03:54:10;101809.72;;;20.97;58.86
62126;BME280;69591;53.282;6.150;2023-10-09T03:55:12;101806.97;;;20.97;58.65
62126;BME280;69591;53.282;6.150;2023-10-09T03:56:14;101805.03;;;20.97;59.14
62126;BME280;69591;53.282;6.150;2023-10-09T03:57:16;101806.22;;;20.96;58.73
62126;BME280;69591;53.282;6.150;2023-10-09T03:58:19;101808.19;;;20.99;58.60
62126;BME280;69591;53.282;6.150;2023-10-09T03:59:21;101812.06;;;20.98;59.19
62126;BME280;69591;53.282;6.150;2023-10-09T04:00:23;101810.50;;;20.97;59.33
62126;BME280;69591;53.282;6.150;2023-10-09T04:01:25;101815.22;;;20.97;59.29
62126;BME280;69591;53.282;6.150;2023-10-09T04:02:26;101817.19;;;20.96;58.88
62126;BME280;69591;53.282;6.150;2023-10-09T04:03:28;101813.25;;;20.97;59.23
62126;BME280;69591;53.282;6.150;2023-10-09T04:04:30;101819.94;;;20.96;58.88
62126;BME280;69591;53.282;6.150;2023-10-09T04:05:32;101812.47;;;20.97;59.09
62126;BME280;69591;53.282;6.150;2023-10-09T04:06:34;101811.69;;;20.96;59.16
62126;BME280;69591;53.282;6.150;2023-10-09T04:07:35;101810.50;;;20.97;58.97
62126;BME280;69591;53.282;6.150;2023-10-09T04:08:37;101808.56;;;20.98;59.28
62126;BME280;69591;53.282;6.150;2023-10-09T04:09:39;101808.56;;;20.98;59.00
62126;BME280;69591;53.282;6.150;2023-10-09T04:10:40;101801.91;;;20.99;59.02
62126;BME280;69591;53.282;6.150;2023-10-09T04:11:42;101796.00;;;20.97;58.86
62126;BME280;69591;53.282;6.150;2023-10-09T04:12:44;101796.78;;;20.97;59.01
62126;BME280;69591;53.282;6.150;2023-10-09T04:13:47;101792.84;;;20.98;59.02
62126;BME280;69591;53.282;6.150;2023-10-09T04:14:48;101796.78;;;20.97;58.91
62126;BME280;69591;53.282;6.150;2023-10-09T04:15:50;101806.59;;;20.98;59.14
62126;BME280;69591;53.282;6.150;2023-10-09T04:16:52;101808.56;;;20.98;59.10
62126;BME280;69591;53.282;6.150;2023-10-09T04:17:53;101802.28;;;20.97;59.30
62126;BME280;69591;53.282;6.150;2023-10-09T04:18:55;101808.56;;;20.98;59.50
62126;BME280;69591;53.282;6.150;2023-10-09T04:19:57;101806.59;;;20.98;59.09
62126;BME280;69591;53.282;6.150;2023-10-09T04:20:59;101803.84;;;20.98;59.18
62126;BME280;69591;53.282;6.150;2023-10-09T04:22:00;101801.91;;;20.99;59.43
62126;BME280;69591;53.282;6.150;2023-10-09T04:23:03;101810.94;;;20.99;59.46
62126;BME280;69591;53.282;6.150;2023-10-09T04:24:06;101809.34;;;20.98;59.00
62126;BME280;69591;53.282;6.150;2023-10-09T04:25:08;101807.78;;;20.97;59.49
62126;BME280;69591;53.282;6.150;2023-10-09T04:26:09;101788.56;;;20.97;59.16
62126;BME280;69591;53.282;6.150;2023-10-09T04:27:11;101803.84;;;20.98;59.05
62126;BME280;69591;53.282;6.150;2023-10-09T04:28:13;101801.09;;;20.98;59.19
62126;BME280;69591;53.282;6.150;2023-10-09T04:29:16;101805.44;;;20.99;59.29
62126;BME280;69591;53.282;6.150;2023-10-09T04:30:18;101795.22;;;20.96;59.35
62126;BME280;69591;53.282;6.150;2023-10-09T04:31:20;101794.03;;;20.97;59.29
62126;BME280;69591;53.282;6.150;2023-10-09T04:32:22;101798.34;;;20.98;59.31
62126;BME280;69591;53.282;6.150;2023-10-09T04:33:23;101799.16;;;20.99;59.51
62126;BME280;69591;53.282;6.150;2023-10-09T04:34:26;101808.19;;;20.99;59.59
62126;BME280;69591;53.282;6.150;2023-10-09T04:35:30;101807.00;;;21.00;59.71
62126;BME280;69591;53.282;6.150;2023-10-09T04:36:32;101805.81;;;20.98;59.33
62126;BME280;69591;53.282;6.150;2023-10-09T04:37:33;101807.78;;;20.97;59.41
62126;BME280;69591;53.282;6.150;2023-10-09T04:38:35;101796.78;;;20.97;59.68
62126;BME280;69591;53.282;6.150;2023-10-09T04:39:37;101799.16;;;20.99;59.56
62126;BME280;69591;53.282;6.150;2023-10-09T04:40:38;101798.75;;;20.97;59.62
62126;BME280;69591;53.282;6.150;2023-10-09T04:41:40;101798.34;;;20.98;59.80
62126;BME280;69591;53.282;6.150;2023-10-09T04:42:42;101792.84;;;20.98;59.86
62126;BME280;69591;53.282;6.150;2023-10-09T04:43:43;101791.72;;;20.99;59.32
62126;BME280;69591;53.282;6.150;2023-10-09T04:44:46;101789.72;;;21.00;59.31
62126;BME280;69591;53.282;6.150;2023-10-09T04:45:48;101777.56;;;20.97;59.28
62126;BME280;69591;53.282;6.150;2023-10-09T04:46:50;101775.22;;;20.99;59.71
62126;BME280;69591;53.282;6.150;2023-10-09T04:47:52;101780.31;;;20.97;59.79
62126;BME280;69591;53.282;6.150;2023-10-09T04:48:54;101769.34;;;20.97;59.76
62126;BME280;69591;53.282;6.150;2023-10-09T04:49:56;101781.88;;;20.98;59.77
62126;BME280;69591;53.282;6.150;2023-10-09T04:50:58;101770.50;;;20.96;59.56
62126;BME280;69591;53.282;6.150;2023-10-09T04:51:59;101777.56;;;20.97;59.72
62126;BME280;69591;53.282;6.150;2023-10-09T04:53:01;101776.38;;;20.98;59.76
62126;BME280;69591;53.282;6.150;2023-10-09T04:54:03;101782.66;;;20.99;59.65
62126;BME280;69591;53.282;6.150;2023-10-09T04:55:06;101786.22;;;20.99;59.96
62126;BME280;69591;53.282;6.150;2023-10-09T04:56:08;101780.31;;;20.97;59.98
62126;BME280;69591;53.282;6.150;2023-10-09T04:57:10;101792.84;;;20.98;59.55
62126;BME280;69591;53.282;6.150;2023-10-09T04:58:12;101796.78;;;20.97;59.80
62126;BME280;69591;53.282;6.150;2023-10-09T04:59:13;101803.06;;;20.98;59.58
62126;BME280;69591;53.282;6.150;2023-10-09T05:00:18;101807.00;;;21.00;59.64
62126;BME280;69591;53.282;6.150;2023-10-09T05:01:20;101802.28;;;20.97;59.88
62126;BME280;69591;53.282;6.150;2023-10-09T05:02:21;101801.91;;;20.99;59.47
62126;BME280;69591;53.282;6.150;2023-10-09T05:03:23;101801.47;;;20.97;59.41
62126;BME280;69591;53.282;6.150;2023-10-09T05:04:25;101781.09;;;20.98;59.97
62126;BME280;69591;53.282;6.150;2023-10-09T05:05:28;101790.91;;;20.99;59.98
62126;BME280;69591;53.282;6.150;2023-10-09T05:06:30;101791.28;;;20.97;59.54
62126;BME280;69591;53.282;6.150;2023-10-09T05:07:31;101792.09;;;20.98;60.02
62126;BME280;69591;53.282;6.150;2023-10-09T05:08:33;101792.84;;;20.98;59.67
62126;BME280;69591;53.282;6.150;2023-10-09T05:09:35;101792.84;;;20.98;59.52
62126;BME280;69591;53.282;6.150;2023-10-09T05:10:36;101805.44;;;20.99;59.71
62126;BME280;69591;53.282;6.150;2023-10-09T05:11:38;101804.63;;;20.99;59.52
62126;BME280;69591;53.282;6.150;2023-10-09T05:12:40;101805.81;;;20.98;59.67
62126;BME280;69591;53.282;6.150;2023-10-09T05:13:42;101809.34;;;20.98;59.80
62126;BME280;69591;53.282;6.150;2023-10-09T05:14:44;101816.81;;;20.98;59.56
62126;BME280;69591;53.282;6.150;2023-10-09T05:15:47;101819.16;;;20.99;59.82
62126;BME280;69591;53.282;6.150;2023-10-09T05:16:48;101828.56;;;20.98;59.92
62126;BME280;69591;53.282;6.150;2023-10-09T05:17:50;101824.66;;;20.99;59.77
62126;BME280;69591;53.282;6.150;2023-10-09T05:18:53;101825.81;;;20.98;60.17
62126;BME280;69591;53.282;6.150;2023-10-09T05:19:55;101821.13;;;20.99;59.88
62126;BME280;69591;53.282;6.150;2023-10-09T05:20:57;101827.00;;;20.97;60.08
62126;BME280;69591;53.282;6.150;2023-10-09T05:21:59;101834.84;;;20.99;59.83
62126;BME280;69591;53.282;6.150;2023-10-09T05:23:01;101829.34;;;20.99;59.80
62126;BME280;69591;53.282;6.150;2023-10-09T05:24:04;101832.88;;;20.99;59.61